createdAt,value
2018-02-19T00:01:30.032Z,5.55
2018-02-19T00:03:57.708Z,5.55
2018-02-19T00:06:25.271Z,5.58
2018-02-19T00:08:52.834Z,5.60
2018-02-19T00:11:20.618Z,5.56
2018-02-19T00:13:49.131Z,5.38
2018-02-19T00:16:16.734Z,5.45
2018-02-19T00:18:44.475Z,5.52
2018-02-19T00:21:12.097Z,5.51
2018-02-19T00:23:39.663Z,5.54
2018-02-19T00:26:07.240Z,5.59
2018-02-19T00:28:34.813Z,5.58
2018-02-19T00:31:02.374Z,5.58
2018-02-19T00:33:30.183Z,5.61
2018-02-19T00:35:57.758Z,5.67
2018-02-19T00:38:25.331Z,5.62
2018-02-19T00:40:53.139Z,5.69
2018-02-19T00:43:20.750Z,5.70
2018-02-19T00:45:48.322Z,5.66
2018-02-19T00:48:15.882Z,5.67
2018-02-19T00:50:43.502Z,5.63
2018-02-19T00:53:11.106Z,5.69
2018-02-19T00:55:38.694Z,5.74
2018-02-19T00:58:06.293Z,5.72
2018-02-19T01:00:33.858Z,5.69
2018-02-19T01:03:01.667Z,5.63
2018-02-19T01:05:29.233Z,5.49
2018-02-19T01:07:57.033Z,5.65
2018-02-19T01:10:24.623Z,5.66
2018-02-19T01:12:52.182Z,5.71
2018-02-19T01:15:19.813Z,5.69
2018-02-19T01:17:47.505Z,5.65
2018-02-19T01:20:15.516Z,5.61
2018-02-19T01:22:43.082Z,5.61
2018-02-19T01:25:10.829Z,5.56
2018-02-19T01:27:38.407Z,5.50
2018-02-19T01:30:05.974Z,5.52
2018-02-19T01:32:33.538Z,5.52
2018-02-19T01:35:01.110Z,5.56
2018-02-19T01:37:28.812Z,5.63
2018-02-19T01:39:56.671Z,5.63
2018-02-19T01:42:24.367Z,5.63
2018-02-19T01:44:51.979Z,5.61
2018-02-19T01:47:19.609Z,5.57
2018-02-19T01:49:59.033Z,5.53
2018-02-19T01:52:26.603Z,5.46
2018-02-19T01:54:54.166Z,5.40
2018-02-19T01:57:21.738Z,5.42
2018-02-19T01:59:49.297Z,5.40
2018-02-19T02:02:17.070Z,5.43
2018-02-19T02:04:44.695Z,5.43
2018-02-19T02:07:12.338Z,5.35
2018-02-19T02:09:40.039Z,5.26
2018-02-19T02:12:07.844Z,5.30
2018-02-19T02:14:35.417Z,5.29
2018-02-19T02:17:02.978Z,5.29
2018-02-19T02:19:30.583Z,5.26
2018-02-19T02:21:58.276Z,5.27
2018-02-19T02:24:25.901Z,5.32
2018-02-19T02:26:53.650Z,5.28
2018-02-19T02:29:21.206Z,5.26
2018-02-19T02:31:48.989Z,5.23
2018-02-19T02:34:16.685Z,5.26
2018-02-19T02:36:44.247Z,5.24
2018-02-19T02:39:11.918Z,5.31
2018-02-19T02:41:39.759Z,5.30
2018-02-19T02:44:07.331Z,5.29
2018-02-19T02:46:34.962Z,5.27
2018-02-19T02:49:02.682Z,5.26
2018-02-19T02:51:30.231Z,5.17
2018-02-19T02:53:57.791Z,5.21
2018-02-19T02:56:25.570Z,5.22
2018-02-19T02:58:53.182Z,5.26
2018-02-19T03:01:20.792Z,5.24
2018-02-19T03:03:48.368Z,5.12
2018-02-19T03:06:15.915Z,5.25
2018-02-19T03:08:43.470Z,5.16
2018-02-19T03:11:11.042Z,5.04
2018-02-19T03:13:38.638Z,4.90
2018-02-19T03:16:06.254Z,4.87
2018-02-19T03:18:33.817Z,4.82
2018-02-19T03:21:01.520Z,4.73
2018-02-19T03:23:29.086Z,4.70
2018-02-19T03:25:56.880Z,4.61
2018-02-19T03:28:24.450Z,4.58
2018-02-19T03:30:52.182Z,4.57
2018-02-19T03:33:20.042Z,4.60
2018-02-19T03:35:47.645Z,4.60
2018-02-19T03:38:15.265Z,4.58
2018-02-19T03:40:42.834Z,4.59
2018-02-19T03:43:10.398Z,4.62
2018-02-19T03:45:37.977Z,4.62
2018-02-19T03:48:05.745Z,4.58
2018-02-19T03:50:33.369Z,4.55
2018-02-19T03:53:00.934Z,4.45
2018-02-19T03:55:28.673Z,4.38
2018-02-19T03:57:56.246Z,4.37
2018-02-19T04:00:24.002Z,4.35
2018-02-19T04:02:51.717Z,4.33
2018-02-19T04:05:19.274Z,4.29
2018-02-19T04:07:46.895Z,4.37
2018-02-19T04:10:14.670Z,4.34
2018-02-19T04:12:42.221Z,4.35
2018-02-19T04:15:09.822Z,4.32
2018-02-19T04:17:37.406Z,4.30
2018-02-19T04:20:04.989Z,4.27
2018-02-19T04:22:32.550Z,4.28
2018-02-19T04:25:00.162Z,4.30
2018-02-19T04:27:27.821Z,4.29
2018-02-19T04:29:55.378Z,4.26
2018-02-19T04:32:23.171Z,4.23
2018-02-19T04:34:50.731Z,4.23
2018-02-19T04:37:18.275Z,4.26
2018-02-19T04:39:45.911Z,4.24
2018-02-19T04:42:13.796Z,4.26
2018-02-19T04:44:42.239Z,4.26
2018-02-19T04:47:09.834Z,4.24
2018-02-19T04:49:37.398Z,4.23
2018-02-19T04:52:05.091Z,4.23
2018-02-19T04:54:32.721Z,4.30
2018-02-19T04:57:00.291Z,4.34
2018-02-19T04:59:28.167Z,4.35
2018-02-19T05:01:55.899Z,4.33
2018-02-19T05:04:23.466Z,4.34
2018-02-19T05:06:51.026Z,4.35
2018-02-19T05:09:18.842Z,4.39
2018-02-19T05:11:46.415Z,4.39
2018-02-19T05:14:14.062Z,4.38
2018-02-19T05:16:41.690Z,4.45
2018-02-19T05:19:09.266Z,4.48
2018-02-19T05:21:36.845Z,4.54
2018-02-19T05:24:04.410Z,4.56
2018-02-19T05:26:31.966Z,4.55
2018-02-19T05:28:59.558Z,4.60
2018-02-19T05:31:27.128Z,4.58
2018-02-19T05:33:54.749Z,4.63
2018-02-19T05:36:22.307Z,4.60
2018-02-19T05:38:49.862Z,4.58
2018-02-19T05:41:17.430Z,4.62
2018-02-19T05:43:44.991Z,4.57
2018-02-19T05:46:12.596Z,4.56
2018-02-19T05:48:40.384Z,4.54
2018-02-19T05:51:08.017Z,4.62
2018-02-19T05:53:35.640Z,4.66
2018-02-19T05:56:03.201Z,4.66
2018-02-19T05:58:30.954Z,4.61
2018-02-19T06:00:58.510Z,4.60
2018-02-19T06:03:26.078Z,4.54
2018-02-19T06:05:53.762Z,4.53
2018-02-19T06:08:21.377Z,4.61
2018-02-19T06:10:48.969Z,4.65
2018-02-19T06:13:16.538Z,4.68
2018-02-19T06:15:44.327Z,4.62
2018-02-19T06:18:11.892Z,4.63
2018-02-19T06:20:39.454Z,4.66
2018-02-19T06:23:07.010Z,4.68
2018-02-19T06:25:34.633Z,4.71
2018-02-19T06:28:02.233Z,4.71
2018-02-19T06:30:29.798Z,4.76
2018-02-19T06:32:57.370Z,4.82
2018-02-19T06:35:24.930Z,4.79
2018-02-19T06:37:52.507Z,4.77
2018-02-19T06:40:20.300Z,4.79
2018-02-19T06:42:47.922Z,4.64
2018-02-19T06:45:15.505Z,4.73
2018-02-19T06:47:43.148Z,4.81
2018-02-19T06:50:10.721Z,4.85
2018-02-19T06:52:38.489Z,4.88
2018-02-19T06:55:06.307Z,4.90
2018-02-19T06:57:34.025Z,5.01
2018-02-19T07:00:01.661Z,5.07
2018-02-19T07:02:29.462Z,5.10
2018-02-19T07:04:57.181Z,5.20
2018-02-19T07:07:24.998Z,5.17
2018-02-19T07:09:52.563Z,5.08
2018-02-19T07:12:20.129Z,5.06
2018-02-19T07:14:47.856Z,5.03
2018-02-19T07:17:15.486Z,4.95
2018-02-19T07:19:43.073Z,4.96
2018-02-19T07:22:10.636Z,5.01
2018-02-19T07:24:38.211Z,5.01
2018-02-19T07:27:07.847Z,5.06
2018-02-19T07:29:35.852Z,5.02
2018-02-19T07:32:03.464Z,4.89
2018-02-19T07:34:31.305Z,4.79
2018-02-19T07:36:58.869Z,4.80
2018-02-19T07:39:26.973Z,4.71
2018-02-19T07:41:54.554Z,4.78
2018-02-19T07:44:22.839Z,4.88
2018-02-19T07:46:50.474Z,4.92
2018-02-19T07:49:18.373Z,4.93
2018-02-19T07:51:46.015Z,5.03
2018-02-19T07:54:13.707Z,5.09
2018-02-19T07:56:41.299Z,5.16
2018-02-19T07:59:08.981Z,5.19
2018-02-19T08:01:36.808Z,5.21
2018-02-19T08:04:04.538Z,5.28
2018-02-19T08:06:32.110Z,5.17
2018-02-19T08:08:59.755Z,5.20
2018-02-19T08:11:27.582Z,5.36
2018-02-19T08:13:55.222Z,5.37
2018-02-19T08:16:22.806Z,5.27
2018-02-19T08:18:50.368Z,5.17
2018-02-19T08:21:18.006Z,5.20
2018-02-19T08:23:45.574Z,5.22
2018-02-19T08:26:13.388Z,5.03
2018-02-19T08:28:41.106Z,5.09
2018-02-19T08:31:08.762Z,5.09
2018-02-19T08:33:36.340Z,5.06
2018-02-19T08:36:04.004Z,5.19
2018-02-19T08:38:31.669Z,5.26
2018-02-19T08:40:59.398Z,5.37
2018-02-19T08:43:27.214Z,5.43
2018-02-19T08:45:54.932Z,5.45
2018-02-19T08:48:22.500Z,5.42
2018-02-19T08:50:50.066Z,5.47
2018-02-19T08:53:17.636Z,5.48
2018-02-19T08:55:45.294Z,5.46
2018-02-19T08:58:12.842Z,5.22
2018-02-19T09:00:40.454Z,5.06
2018-02-19T09:03:07.995Z,5.05
2018-02-19T09:05:35.555Z,5.00
2018-02-19T09:08:03.292Z,4.98
2018-02-19T09:10:30.854Z,4.97
2018-02-19T09:12:58.634Z,4.94
2018-02-19T09:15:26.182Z,5.02
2018-02-19T09:17:54.065Z,5.04
2018-02-19T09:20:21.784Z,4.86
2018-02-19T09:22:49.602Z,4.88
2018-02-19T09:25:17.420Z,4.85
2018-02-19T09:27:45.029Z,4.86
2018-02-19T09:30:12.647Z,4.80
2018-02-19T09:32:40.220Z,4.82
2018-02-19T09:35:07.843Z,4.89
2018-02-19T09:37:35.665Z,4.98
2018-02-19T09:40:03.279Z,5.00
2018-02-19T09:42:30.843Z,5.03
2018-02-19T09:44:58.563Z,5.07
2018-02-19T09:47:26.383Z,5.13
2018-02-19T09:49:54.079Z,5.16
2018-02-19T09:52:21.920Z,5.14
2018-02-19T09:54:49.467Z,5.22
2018-02-19T09:57:17.022Z,5.15
2018-02-19T09:59:44.680Z,5.05
2018-02-19T10:02:12.491Z,5.02
2018-02-19T10:04:40.072Z,5.00
2018-02-19T10:07:07.785Z,4.83
2018-02-19T10:09:35.401Z,4.82
2018-02-19T10:12:03.127Z,4.86
2018-02-19T10:14:30.844Z,4.85
2018-02-19T10:16:58.583Z,4.91
2018-02-19T10:19:26.143Z,4.89
2018-02-19T10:21:53.720Z,4.87
2018-02-19T10:24:21.306Z,4.82
2018-02-19T10:26:48.929Z,4.73
2018-02-19T10:29:16.475Z,4.66
2018-02-19T10:31:44.074Z,4.76
2018-02-19T10:34:11.824Z,4.77
2018-02-19T10:36:39.393Z,4.80
2018-02-19T10:39:07.261Z,4.77
2018-02-19T10:41:35.082Z,4.71
2018-02-19T10:44:02.900Z,4.68
2018-02-19T10:46:30.717Z,4.60
2018-02-19T10:48:58.278Z,4.59
2018-02-19T10:51:26.035Z,4.66
2018-02-19T10:53:53.771Z,4.65
2018-02-19T10:56:21.589Z,4.67
2018-02-19T10:58:49.158Z,4.68
2018-02-19T11:01:16.694Z,4.70
2018-02-19T11:03:44.310Z,4.75
2018-02-19T11:06:11.952Z,4.70
2018-02-19T11:08:39.502Z,4.70
2018-02-19T11:11:07.088Z,4.69
2018-02-19T11:13:34.777Z,4.74
2018-02-19T11:16:02.426Z,4.80
2018-02-19T11:18:29.991Z,4.81
2018-02-19T11:20:57.543Z,4.90
2018-02-19T11:23:25.244Z,4.91
2018-02-19T11:25:53.004Z,4.92
2018-02-19T11:28:20.655Z,4.91
2018-02-19T11:30:48.449Z,4.98
2018-02-19T11:33:16.008Z,4.95
2018-02-19T11:35:43.599Z,4.95
2018-02-19T11:38:11.266Z,4.86
2018-02-19T11:40:38.897Z,4.82
2018-02-19T11:43:06.523Z,4.77
2018-02-19T11:45:34.138Z,4.78
2018-02-19T11:48:01.865Z,4.76
2018-02-19T11:50:29.432Z,4.78
2018-02-19T11:52:57.093Z,4.78
2018-02-19T11:55:24.668Z,4.74
2018-02-19T11:57:52.437Z,4.70
2018-02-19T12:00:20.006Z,4.55
2018-02-19T12:02:47.564Z,4.50
2018-02-19T12:05:15.138Z,4.53
2018-02-19T12:07:42.810Z,4.51
2018-02-19T12:10:10.427Z,4.49
2018-02-19T12:12:37.990Z,4.48
2018-02-19T12:15:05.674Z,4.47
2018-02-19T12:17:33.296Z,4.49
2018-02-19T12:20:01.101Z,4.40
2018-02-19T12:22:28.918Z,4.35
2018-02-19T12:24:56.470Z,4.36
2018-02-19T12:27:24.254Z,4.32
2018-02-19T12:29:51.824Z,4.32
2018-02-19T12:32:19.394Z,4.35
2018-02-19T12:34:47.208Z,4.34
2018-02-19T12:37:14.786Z,4.40
2018-02-19T12:39:42.393Z,4.37
2018-02-19T12:42:10.024Z,4.37
2018-02-19T12:44:37.669Z,4.39
2018-02-19T12:47:05.234Z,4.41
2018-02-19T12:49:33.016Z,4.48
2018-02-19T12:52:00.621Z,4.51
2018-02-19T12:54:28.352Z,4.53
2018-02-19T12:56:55.926Z,4.46
2018-02-19T12:59:23.690Z,4.46
2018-02-19T13:01:51.342Z,4.50
2018-02-19T13:04:18.898Z,4.53
2018-02-19T13:06:46.464Z,4.51
2018-02-19T13:09:14.260Z,4.52
2018-02-19T13:11:41.978Z,4.51
2018-02-19T13:14:09.551Z,4.52
2018-02-19T13:16:37.133Z,4.46
2018-02-19T13:19:04.755Z,4.47
2018-02-19T13:21:32.551Z,4.42
2018-02-19T13:24:00.118Z,4.42
2018-02-19T13:26:27.696Z,4.31
2018-02-19T13:28:55.262Z,4.30
2018-02-19T13:31:23.013Z,4.22
2018-02-19T13:33:50.754Z,4.20
2018-02-19T13:36:18.369Z,4.18
2018-02-19T13:38:45.920Z,4.13
2018-02-19T13:41:13.673Z,4.14
2018-02-19T13:43:41.262Z,4.15
2018-02-19T13:46:09.030Z,4.16
2018-02-19T13:48:36.822Z,4.19
2018-02-19T13:51:04.384Z,4.11
2018-02-19T13:53:32.184Z,4.14
2018-02-19T13:56:00.006Z,4.16
2018-02-19T13:58:27.607Z,4.18
2018-02-19T14:00:55.331Z,4.03
2018-02-19T14:03:22.961Z,4.01
2018-02-19T14:05:50.532Z,4.04
2018-02-19T14:08:18.253Z,4.02
2018-02-19T14:10:46.112Z,3.95
2018-02-19T14:13:13.933Z,3.95
2018-02-19T14:15:41.534Z,3.99
2018-02-19T14:18:09.134Z,4.04
2018-02-19T14:20:36.678Z,4.02
2018-02-19T14:23:04.411Z,3.95
2018-02-19T14:25:31.970Z,3.92
2018-02-19T14:27:59.623Z,3.91
2018-02-19T14:30:27.248Z,3.96
2018-02-19T14:32:54.796Z,3.94
2018-02-19T14:35:22.406Z,3.95
2018-02-19T14:37:50.210Z,3.87
2018-02-19T14:40:18.030Z,3.76
2018-02-19T14:42:45.600Z,3.72
2018-02-19T14:45:13.465Z,3.72
2018-02-19T14:47:41.094Z,3.73
2018-02-19T14:50:08.651Z,3.68
2018-02-19T14:52:36.519Z,3.67
2018-02-19T14:55:04.338Z,3.63
2018-02-19T14:57:31.905Z,3.56
2018-02-19T15:00:00.325Z,3.54
2018-02-19T15:02:28.162Z,3.53
2018-02-19T15:04:55.733Z,3.54
2018-02-19T15:07:23.304Z,3.52
2018-02-19T15:09:51.052Z,3.50
2018-02-19T15:12:18.615Z,3.51
2018-02-19T15:14:46.226Z,3.49
2018-02-19T15:17:13.796Z,3.50
2018-02-19T15:19:41.368Z,3.54
2018-02-19T15:22:08.930Z,3.51
2018-02-19T15:24:36.482Z,3.54
2018-02-19T15:27:04.273Z,3.51
2018-02-19T15:29:31.935Z,3.45
2018-02-19T15:31:59.519Z,3.45
2018-02-19T15:34:27.094Z,3.46
2018-02-19T15:36:54.655Z,3.40
2018-02-19T15:39:22.242Z,3.40
2018-02-19T15:41:49.797Z,3.37
2018-02-19T15:44:17.598Z,3.35
2018-02-19T15:46:45.179Z,3.33
2018-02-19T15:49:12.748Z,3.27
2018-02-19T15:51:40.312Z,3.32
2018-02-19T15:54:07.870Z,3.35
2018-02-19T15:56:35.446Z,3.33
2018-02-19T15:59:03.205Z,3.27
2018-02-19T16:01:30.902Z,3.24
2018-02-19T16:03:58.608Z,3.29
2018-02-19T16:06:26.281Z,3.28
2018-02-19T16:08:54.040Z,3.25
2018-02-19T16:11:21.610Z,3.25
2018-02-19T16:13:49.414Z,3.23
2018-02-19T16:16:16.966Z,3.18
2018-02-19T16:18:44.752Z,3.18
2018-02-19T16:21:12.331Z,3.20
2018-02-19T16:23:40.124Z,3.16
2018-02-19T16:26:07.696Z,3.15
2018-02-19T16:28:35.312Z,3.09
2018-02-19T16:31:02.946Z,3.16
2018-02-19T16:33:30.759Z,3.10
2018-02-19T16:35:58.368Z,3.09
2018-02-19T16:38:25.943Z,3.05
2018-02-19T16:40:53.498Z,3.04
2018-02-19T16:43:21.232Z,3.04
2018-02-19T16:45:48.845Z,3.05
2018-02-19T16:48:16.665Z,3.00
2018-02-19T16:50:44.483Z,2.95
2018-02-19T16:53:12.202Z,2.92
2018-02-19T16:55:40.020Z,2.90
2018-02-19T16:58:07.582Z,2.89
2018-02-19T17:00:35.151Z,2.88
2018-02-19T17:03:02.769Z,2.84
2018-02-19T17:05:30.399Z,2.81
2018-02-19T17:07:58.210Z,2.78
2018-02-19T17:10:25.765Z,2.81
2018-02-19T17:12:53.508Z,2.83
2018-02-19T17:15:21.131Z,2.80
2018-02-19T17:17:48.701Z,2.78
2018-02-19T17:20:16.269Z,2.76
2018-02-19T17:22:43.882Z,2.78
2018-02-19T17:25:11.530Z,2.71
2018-02-19T17:27:39.091Z,2.74
2018-02-19T17:30:06.847Z,2.69
2018-02-19T17:32:34.410Z,2.68
2018-02-19T17:35:02.100Z,2.73
2018-02-19T17:37:29.692Z,2.71
2018-02-19T17:39:57.545Z,2.69
2018-02-19T17:42:25.106Z,2.65
2018-02-19T17:44:52.674Z,2.67
2018-02-19T17:47:20.227Z,2.65
2018-02-19T17:49:48.015Z,2.65
2018-02-19T17:52:15.637Z,2.62
2018-02-19T17:54:43.333Z,2.63
2018-02-19T17:57:10.894Z,2.53
2018-02-19T17:59:38.688Z,2.59
2018-02-19T18:02:06.248Z,2.56
2018-02-19T18:04:34.159Z,2.54
2018-02-19T18:07:01.734Z,2.56
2018-02-19T18:09:29.290Z,2.47
2018-02-19T18:11:57.078Z,2.52
2018-02-19T18:14:24.688Z,2.46
2018-02-19T18:16:52.515Z,2.43
2018-02-19T18:19:20.070Z,2.42
2018-02-19T18:21:47.651Z,2.37
2018-02-19T18:24:15.226Z,2.47
2018-02-19T18:26:42.988Z,2.50
2018-02-19T18:29:10.805Z,2.54
2018-02-19T18:31:38.398Z,2.51
2018-02-19T18:34:05.995Z,2.46
2018-02-19T18:36:33.562Z,2.44
2018-02-19T18:39:01.210Z,2.42
2018-02-19T18:41:28.994Z,2.42
2018-02-19T18:43:56.677Z,2.38
2018-02-19T18:46:24.298Z,2.41
2018-02-19T18:48:51.948Z,2.40
2018-02-19T18:51:19.514Z,2.37
2018-02-19T18:53:47.178Z,2.43
2018-02-19T18:56:14.787Z,2.45
2018-02-19T18:58:42.353Z,2.37
2018-02-19T19:01:09.978Z,2.27
2018-02-19T19:03:37.564Z,2.37
2018-02-19T19:06:05.376Z,2.40
2018-02-19T19:08:44.693Z,2.44
2018-02-19T19:11:12.252Z,2.37
2018-02-19T19:13:39.819Z,2.44
2018-02-19T19:16:07.372Z,2.45
2018-02-19T19:18:35.026Z,2.42
2018-02-19T19:21:02.822Z,2.40
2018-02-19T19:23:30.542Z,2.41
2018-02-19T19:25:58.120Z,2.40
2018-02-19T19:28:25.769Z,2.39
2018-02-19T19:30:53.597Z,2.38
2018-02-19T19:33:21.414Z,2.38
2018-02-19T19:35:48.971Z,2.39
2018-02-19T19:38:16.540Z,2.39
2018-02-19T19:40:44.106Z,2.33
2018-02-19T19:43:11.986Z,2.36
2018-02-19T19:45:39.614Z,2.40
2018-02-19T19:48:07.186Z,2.36
2018-02-19T19:50:34.770Z,2.36
2018-02-19T19:53:02.338Z,2.35
2018-02-19T19:55:30.182Z,2.38
2018-02-19T19:57:57.900Z,2.36
2018-02-19T20:00:25.460Z,2.33
2018-02-19T20:02:53.030Z,2.31
2018-02-19T20:05:20.575Z,2.34
2018-02-19T20:07:48.202Z,2.35
2018-02-19T20:10:15.758Z,2.31
2018-02-19T20:12:43.328Z,2.35
2018-02-19T20:15:10.908Z,2.33
2018-02-19T20:17:38.474Z,2.30
2018-02-19T20:20:06.145Z,2.26
2018-02-19T20:22:33.714Z,2.25
2018-02-19T20:25:01.598Z,2.26
2018-02-19T20:27:29.158Z,2.24
2018-02-19T20:29:56.825Z,2.20
2018-02-19T20:32:24.402Z,2.20
2018-02-19T20:34:51.966Z,2.22
2018-02-19T20:37:19.782Z,2.23
2018-02-19T20:39:47.598Z,2.27
2018-02-19T20:42:15.210Z,2.29
2018-02-19T20:44:42.766Z,2.31
2018-02-19T20:47:10.322Z,2.28
2018-02-19T20:49:37.893Z,2.27
2018-02-19T20:52:05.455Z,2.26
2018-02-19T20:54:33.181Z,2.26
2018-02-19T20:57:00.738Z,2.26
2018-02-19T20:59:28.363Z,2.27
2018-02-19T21:01:56.160Z,2.28
2018-02-19T21:04:23.754Z,2.29
2018-02-19T21:06:51.498Z,2.27
2018-02-19T21:09:19.128Z,2.20
2018-02-19T21:11:46.690Z,2.21
2018-02-19T21:14:14.408Z,2.19
2018-02-19T21:16:42.269Z,2.17
2018-02-19T21:19:09.840Z,2.14
2018-02-19T21:21:37.583Z,2.14
2018-02-19T21:24:05.297Z,2.16
2018-02-19T21:26:33.016Z,2.16
2018-02-19T21:29:00.731Z,2.21
2018-02-19T21:31:28.290Z,2.25
2018-02-19T21:33:55.915Z,2.29
2018-02-19T21:36:23.712Z,2.33
2018-02-19T21:38:51.255Z,2.29
2018-02-19T21:41:18.823Z,2.34
2018-02-19T21:43:46.367Z,2.36
2018-02-19T21:46:13.931Z,2.38
2018-02-19T21:48:41.755Z,2.40
2018-02-19T21:51:09.379Z,2.46
2018-02-19T21:53:36.942Z,2.45
2018-02-19T21:56:04.573Z,2.42
2018-02-19T21:58:32.126Z,2.37
2018-02-19T22:00:59.701Z,2.37
2018-02-19T22:03:27.278Z,2.40
2018-02-19T22:05:54.996Z,2.39
2018-02-19T22:08:22.639Z,2.42
2018-02-19T22:10:50.238Z,2.43
2018-02-19T22:13:17.793Z,2.45
2018-02-19T22:15:45.388Z,2.51
2018-02-19T22:18:12.950Z,2.47
2018-02-19T22:20:40.518Z,2.51
2018-02-19T22:23:08.078Z,2.51
2018-02-19T22:25:35.682Z,2.53
2018-02-19T22:28:03.234Z,2.54
2018-02-19T22:30:30.770Z,2.58
2018-02-19T22:32:58.330Z,2.58
2018-02-19T22:35:25.890Z,2.57
2018-02-19T22:37:53.456Z,2.57
2018-02-19T22:40:21.016Z,2.60
2018-02-19T22:42:48.628Z,2.56
2018-02-19T22:45:16.181Z,2.56
2018-02-19T22:47:43.748Z,2.53
2018-02-19T22:50:11.318Z,2.55
2018-02-19T22:52:38.874Z,2.56
2018-02-19T22:55:06.450Z,2.57
2018-02-19T22:57:34.015Z,2.53
2018-02-19T23:00:01.628Z,2.51
2018-02-19T23:02:29.182Z,2.55
2018-02-19T23:04:56.843Z,2.51
2018-02-19T23:07:24.416Z,2.47
2018-02-19T23:09:51.985Z,2.52
2018-02-19T23:12:19.550Z,2.54
2018-02-19T23:14:47.107Z,2.51
2018-02-19T23:17:14.829Z,2.51
2018-02-19T23:19:43.253Z,2.48
2018-02-19T23:22:11.158Z,2.45
2018-02-19T23:24:38.722Z,2.46
2018-02-19T23:27:06.283Z,2.44
2018-02-19T23:29:33.850Z,2.46
2018-02-19T23:32:01.407Z,2.46
2018-02-19T23:34:29.038Z,2.44
2018-02-19T23:36:57.381Z,2.42
2018-02-19T23:39:25.086Z,2.41
2018-02-19T23:41:52.654Z,2.46
2018-02-19T23:44:20.214Z,2.49
2018-02-19T23:46:47.784Z,2.51
2018-02-19T23:49:15.354Z,2.54
2018-02-19T23:51:42.941Z,2.59
2018-02-19T23:54:20.407Z,2.56
2018-02-19T23:56:48.026Z,2.54
2018-02-19T23:59:15.586Z,2.49
